Rio Masma — EA8654 — position and weather

sailwx.info

Track history (hours):
 
Tides and Currents Weather Stations Pressure Air Temp Water Temp Dewpoint Dewpoint Depression Visibility Wind Speed Wind Dir Waves Ship Positions

Rio Masma

Last reported at 2017-Nov-28 07:02 UTC. Time now 2017-Dec-17 23:32 UTC.
Position N 43°24' W 003°28'.
Warning: this ship's position is 19 days out of date.

Length 20 m.

Type: Fishing. MMSI: 224020460.

Date/timePositionNaut miles runAvg speedWind from/ knotsBaromVisibWave heightAir tempDewpointWater temp
2017-Nov-28 07:02N 43°24' W 003°28'0 0.0
2017-Nov-27 14:03N 43°24' W 003°28'1 8.2
2017-Nov-27 13:59N 43°25' W 003°28'3 7.1
2017-Nov-27 13:30N 43°27' W 003°24'4 8.4
2017-Nov-27 13:00N 43°29' W 003°19'3 6.6
2017-Nov-27 12:30N 43°31' W 003°16'3 5.1
2017-Nov-27 12:00N 43°33' W 003°13'0 0.3
2017-Nov-27 11:30N 43°33' W 003°12'0 0.6
2017-Nov-27 11:00N 43°33' W 003°12'0 0.7
2017-Nov-27 10:30N 43°33' W 003°13'0 0.5
2017-Nov-27 10:00N 43°32' W 003°12'0 0.6
2017-Nov-27 09:30N 43°32' W 003°12'1 1.4
2017-Nov-27 09:00N 43°33' W 003°12'0 0.6
2017-Nov-27 08:30N 43°33' W 003°12'1 1.9
2017-Nov-27 08:00N 43°33' W 003°11'0 0.7
2017-Nov-27 07:30N 43°33' W 003°11'0 0.5
2017-Nov-27 07:00N 43°33' W 003°11'0 0.4
2017-Nov-27 06:30N 43°32' W 003°12'0 0.5
2017-Nov-27 06:00N 43°32' W 003°12'1 1.7
2017-Nov-27 05:30N 43°33' W 003°13'0 0.4
2017-Nov-27 05:00N 43°33' W 003°13'3 6.4
2017-Nov-27 04:30N 43°31' W 003°16'5 9.2
2017-Nov-27 04:00N 43°28' W 003°22'4 8.6
2017-Nov-27 03:30N 43°26' W 003°27'  
Track history (hours):
 
Tides and Currents Weather Stations Pressure Air Temp Water Temp Dewpoint Dewpoint Depression Visibility Wind Speed Wind Dir Waves Ship Positions

Rio Masma

Last reported at 2017-Nov-28 07:02 UTC. Time now 2017-Dec-17 23:32 UTC.
Position N 43°24' W 003°28'.
Warning: this ship's position is 19 days out of date.

Length 20 m.

Type: Fishing. MMSI: 224020460.

Date/timePositionNaut miles runAvg speedWind from/ knotsBaromVisibWave heightAir tempDewpointWater temp
2017-Nov-28 07:02N 43°24' W 003°28'0 0.0
2017-Nov-27 14:03N 43°24' W 003°28'1 8.2
2017-Nov-27 13:59N 43°25' W 003°28'3 7.1
2017-Nov-27 13:30N 43°27' W 003°24'4 8.4
2017-Nov-27 13:00N 43°29' W 003°19'3 6.6
2017-Nov-27 12:30N 43°31' W 003°16'3 5.1
2017-Nov-27 12:00N 43°33' W 003°13'0 0.3
2017-Nov-27 11:30N 43°33' W 003°12'0 0.6
2017-Nov-27 11:00N 43°33' W 003°12'0 0.7
2017-Nov-27 10:30N 43°33' W 003°13'0 0.5
2017-Nov-27 10:00N 43°32' W 003°12'0 0.6
2017-Nov-27 09:30N 43°32' W 003°12'1 1.4
2017-Nov-27 09:00N 43°33' W 003°12'0 0.6
2017-Nov-27 08:30N 43°33' W 003°12'1 1.9
2017-Nov-27 08:00N 43°33' W 003°11'0 0.7
2017-Nov-27 07:30N 43°33' W 003°11'0 0.5
2017-Nov-27 07:00N 43°33' W 003°11'0 0.4
2017-Nov-27 06:30N 43°32' W 003°12'0 0.5
2017-Nov-27 06:00N 43°32' W 003°12'1 1.7
2017-Nov-27 05:30N 43°33' W 003°13'0 0.4
2017-Nov-27 05:00N 43°33' W 003°13'3 6.4
2017-Nov-27 04:30N 43°31' W 003°16'5 9.2
2017-Nov-27 04:00N 43°28' W 003°22'4 8.6
2017-Nov-27 03:30N 43°26' W 003°27'  

Dump ship's entire track history